createdAt,value
2019-05-23T04:32:09.096Z,98329.13
2019-05-23T04:37:15.954Z,98332.63
2019-05-23T04:42:16.952Z,98333.32
2019-05-23T04:47:18.140Z,98342.71
2019-05-23T04:52:20.548Z,98345.76
2019-05-23T04:57:21.838Z,98352.20
2019-05-23T05:02:26.849Z,98357.41
2019-05-23T05:07:26.801Z,98370.08
2019-05-23T05:12:28.152Z,98369.91
2019-05-23T05:17:29.250Z,98376.23
2019-05-23T05:22:30.217Z,98382.20
2019-05-23T05:27:31.501Z,98381.59
2019-05-23T05:32:44.011Z,98392.75
2019-05-23T05:37:35.857Z,98392.00
2019-05-23T05:42:38.538Z,98390.30
2019-05-23T05:47:40.425Z,98393.28
2019-05-23T05:52:42.301Z,98401.87
2019-05-23T05:57:43.234Z,98401.53
2019-05-23T06:03:02.841Z,98408.06
2019-05-23T06:07:48.498Z,98410.61
2019-05-23T06:12:49.579Z,98408.58
2019-05-23T06:17:51.060Z,98416.64
2019-05-23T06:22:51.954Z,98412.57
2019-05-23T06:27:53.125Z,98430.05
2019-05-23T06:32:54.812Z,98428.70
2019-05-23T06:37:56.284Z,98431.38
2019-05-23T06:42:57.273Z,98434.04
2019-05-23T06:47:58.851Z,98434.86
2019-05-23T06:53:00.549Z,98437.79
2019-05-23T06:58:02.732Z,98437.33
2019-05-23T07:03:04.411Z,98444.25
2019-05-23T07:08:06.296Z,98442.91
2019-05-23T07:13:07.299Z,98444.78
2019-05-23T07:18:08.596Z,98441.28
2019-05-23T07:23:10.766Z,98443.11
2019-05-23T07:28:11.896Z,98435.97
2019-05-23T07:33:13.419Z,98438.42
2019-05-23T07:38:14.368Z,98440.95
2019-05-23T07:43:15.948Z,98440.84
2019-05-23T07:48:17.013Z,98435.17
2019-05-23T07:53:20.200Z,98447.08
2019-05-23T07:58:21.067Z,98437.16
2019-05-23T08:03:25.168Z,98437.66
2019-05-23T08:08:26.555Z,98433.83
2019-05-23T08:13:28.032Z,98437.45
2019-05-23T08:18:29.117Z,98430.48
2019-05-23T08:23:30.112Z,98432.22
2019-05-23T08:28:31.387Z,98428.36
2019-05-23T08:33:34.465Z,98435.88
2019-05-23T08:38:35.960Z,98427.92
2019-05-23T08:43:36.814Z,98421.81
2019-05-23T08:48:37.704Z,98412.22
2019-05-23T08:53:38.595Z,98414.58
2019-05-23T08:58:39.778Z,98410.59
2019-05-23T09:03:40.661Z,98403.79
2019-05-23T09:08:41.951Z,98407.59
2019-05-23T09:13:43.526Z,98406.83
2019-05-23T09:18:44.936Z,98417.59
2019-05-23T09:23:46.093Z,98414.20
2019-05-23T09:28:46.964Z,98408.28
2019-05-23T09:33:47.848Z,98417.95
2019-05-23T09:38:48.729Z,98418.38
2019-05-23T09:43:49.604Z,98416.88
2019-05-23T09:48:51.243Z,98408.05
2019-05-23T09:53:52.224Z,98399.72
2019-05-23T09:58:53.214Z,98405.61
2019-05-23T10:03:54.388Z,98405.38
2019-05-23T10:08:55.283Z,98402.14
2019-05-23T10:14:03.778Z,98402.30
2019-05-23T10:19:04.652Z,98408.09
2019-05-23T10:24:06.731Z,98399.56
2019-05-23T10:29:07.608Z,98401.00
2019-05-23T10:34:08.993Z,98391.72
2019-05-23T10:39:11.368Z,98388.06
2019-05-23T10:44:12.395Z,98388.43
2019-05-23T10:49:13.365Z,98375.19
2019-05-23T10:54:14.335Z,98373.87
2019-05-23T10:59:15.314Z,98367.94
2019-05-23T11:04:16.186Z,98360.67
2019-05-23T11:09:37.952Z,98349.16
2019-05-23T11:14:32.450Z,98351.78
2019-05-23T11:19:33.633Z,98349.98
2019-05-23T11:24:34.618Z,98350.30
2019-05-23T11:29:35.794Z,98346.94
2019-05-23T11:34:36.772Z,98338.95
2019-05-23T11:39:42.024Z,98333.42
2019-05-23T11:44:41.740Z,98335.06
2019-05-23T11:49:44.594Z,98327.08
2019-05-23T11:54:46.074Z,98324.92
2019-05-23T11:59:47.460Z,98318.52
2019-05-23T12:04:48.439Z,98322.86
2019-05-23T12:09:49.935Z,98316.70
2019-05-23T12:14:50.921Z,98316.14
2019-05-23T12:19:52.137Z,98319.16
2019-05-23T12:24:52.985Z,98304.36
2019-05-23T12:29:54.365Z,98314.64
2019-05-23T12:35:09.228Z,98296.52
2019-05-23T12:39:59.123Z,98298.38
2019-05-23T12:45:00.099Z,98293.33
2019-05-23T12:50:02.868Z,98287.45
2019-05-23T12:55:04.556Z,98288.22
2019-05-23T13:00:19.931Z,98281.50
2019-05-23T13:05:21.316Z,98274.16
2019-05-23T13:10:24.461Z,98269.86
2019-05-23T13:15:25.488Z,98261.96
2019-05-23T13:20:26.638Z,98259.57
2019-05-23T13:25:28.188Z,98257.67
2019-05-23T13:30:29.661Z,98254.73
2019-05-23T13:35:30.643Z,98251.53
2019-05-23T13:40:31.917Z,98250.30
2019-05-23T13:45:33.006Z,98245.02
2019-05-23T13:50:34.976Z,98238.13
2019-05-23T13:55:37.779Z,98238.64
2019-05-23T14:00:39.360Z,98244.19
2019-05-23T14:05:40.736Z,98238.51
2019-05-23T14:10:41.612Z,98240.52
2019-05-23T14:15:44.488Z,98238.51
2019-05-23T14:20:45.756Z,98238.10
2019-05-23T14:25:47.830Z,98234.92
2019-05-23T14:30:51.305Z,98234.22
2019-05-23T14:36:00.639Z,98231.51
2019-05-23T14:41:02.529Z,98227.58
2019-05-23T14:46:08.048Z,98212.45
2019-05-23T14:51:27.872Z,98213.94
2019-05-23T14:56:32.077Z,98205.86
2019-05-23T15:01:34.146Z,98203.16
2019-05-23T15:06:35.819Z,98200.16
2019-05-23T15:11:36.936Z,98193.67
2019-05-23T15:16:37.913Z,98188.63
2019-05-23T15:21:38.884Z,98188.48
2019-05-23T15:26:40.056Z,98188.57
2019-05-23T15:31:41.536Z,98185.72
2019-05-23T15:36:42.429Z,98180.73
2019-05-23T15:41:43.395Z,98175.16
2019-05-23T15:46:44.271Z,98171.11
2019-05-23T15:51:47.070Z,98168.22
2019-05-23T15:56:52.770Z,98160.08
2019-05-23T16:02:01.348Z,98157.42
2019-05-23T16:07:03.424Z,98151.64
2019-05-23T16:12:06.131Z,98152.64
2019-05-23T16:17:07.017Z,98157.21
2019-05-23T16:22:08.209Z,98151.41
2019-05-23T16:27:09.887Z,98146.20
2019-05-23T16:32:13.930Z,98145.14
2019-05-23T16:37:15.510Z,98146.20
2019-05-23T16:42:18.291Z,98152.73
2019-05-23T16:47:19.468Z,98142.77
2019-05-23T16:52:20.348Z,98153.02
2019-05-23T16:57:40.254Z,98145.33
2019-05-23T17:02:43.032Z,98061.97
2019-05-23T17:07:45.928Z,98137.94
2019-05-23T17:13:05.559Z,98147.09
2019-05-23T17:18:11.116Z,98143.06
2019-05-23T17:23:14.102Z,98139.88
2019-05-23T17:28:20.011Z,98143.40
2019-05-23T17:33:21.373Z,98140.00
2019-05-23T17:38:22.642Z,98133.59
2019-05-23T17:43:23.627Z,98124.59
2019-05-23T17:48:25.238Z,98127.22
2019-05-23T17:53:26.608Z,98130.28
2019-05-23T17:58:27.471Z,98122.72
2019-05-23T18:03:29.760Z,98118.65
2019-05-23T18:08:31.230Z,98124.93
2019-05-23T18:13:33.330Z,98131.50
2019-05-23T18:18:34.198Z,98139.78
2019-05-23T18:23:35.381Z,98143.49
2019-05-23T18:28:36.882Z,98140.09
2019-05-23T18:33:38.755Z,98146.80
2019-05-23T18:38:40.235Z,98147.02
2019-05-23T18:43:42.721Z,98144.77
2019-05-23T18:48:43.977Z,98153.13
2019-05-23T18:53:45.015Z,98152.86
2019-05-23T18:58:46.492Z,98153.45
2019-05-23T19:03:47.767Z,98152.72
2019-05-23T19:08:50.253Z,98165.71
2019-05-23T19:13:51.244Z,98171.61
2019-05-23T19:18:52.731Z,98170.78
2019-05-23T19:23:54.764Z,98178.48
2019-05-23T19:28:55.659Z,98186.69
2019-05-23T19:33:56.564Z,98185.20
2019-05-23T19:38:57.571Z,98185.53
2019-05-23T19:43:58.581Z,98189.42
2019-05-23T19:48:59.807Z,98201.00
2019-05-23T19:54:01.464Z,98191.32
2019-05-23T19:59:02.599Z,98192.06
2019-05-23T20:04:03.747Z,98182.66
2019-05-23T20:09:09.541Z,98185.97
